sensor_id;sensor_type;location;lat;lon;timestamp;P1;durP1;ratioP1;P2;durP2;ratioP2
59366;SDS011;45163;47.690;11.770;2023-01-13T00:02:00;1.60;;;1.07;;
59366;SDS011;45163;47.690;11.770;2023-01-13T00:04:26;1.10;;;1.00;;
59366;SDS011;45163;47.690;11.770;2023-01-13T00:06:52;1.40;;;1.30;;
59366;SDS011;45163;47.690;11.770;2023-01-13T00:09:18;2.13;;;1.30;;
59366;SDS011;45163;47.690;11.770;2023-01-13T00:11:44;2.70;;;1.83;;
59366;SDS011;45163;47.690;11.770;2023-01-13T00:14:09;3.60;;;2.50;;
59366;SDS011;45163;47.690;11.770;2023-01-13T00:16:35;3.53;;;3.23;;
59366;SDS011;45163;47.690;11.770;2023-01-13T00:19:03;2.93;;;2.00;;
59366;SDS011;45163;47.690;11.770;2023-01-13T00:21:28;1.67;;;1.57;;
59366;SDS011;45163;47.690;11.770;2023-01-13T00:23:54;2.83;;;1.53;;
59366;SDS011;45163;47.690;11.770;2023-01-13T00:26:24;4.87;;;1.97;;
59366;SDS011;45163;47.690;11.770;2023-01-13T00:28:56;1.70;;;1.60;;
59366;SDS011;45163;47.690;11.770;2023-01-13T00:31:23;1.23;;;1.13;;
59366;SDS011;45163;47.690;11.770;2023-01-13T00:33:49;2.00;;;1.50;;
59366;SDS011;45163;47.690;11.770;2023-01-13T00:36:16;11.50;;;8.80;;
59366;SDS011;45163;47.690;11.770;2023-01-13T00:38:43;2.20;;;2.00;;
59366;SDS011;45163;47.690;11.770;2023-01-13T00:41:11;6.77;;;5.53;;
59366;SDS011;45163;47.690;11.770;2023-01-13T00:43:39;6.07;;;5.07;;
59366;SDS011;45163;47.690;11.770;2023-01-13T00:46:06;4.23;;;3.63;;
59366;SDS011;45163;47.690;11.770;2023-01-13T00:48:33;10.03;;;8.43;;
59366;SDS011;45163;47.690;11.770;2023-01-13T00:51:01;5.83;;;4.03;;
59366;SDS011;45163;47.690;11.770;2023-01-13T00:53:31;11.93;;;10.53;;
59366;SDS011;45163;47.690;11.770;2023-01-13T00:56:00;9.83;;;7.63;;
59366;SDS011;45163;47.690;11.770;2023-01-13T00:58:30;8.80;;;6.50;;
59366;SDS011;45163;47.690;11.770;2023-01-13T01:01:01;4.93;;;3.23;;
59366;SDS011;45163;47.690;11.770;2023-01-13T01:03:28;2.67;;;1.40;;
59366;SDS011;45163;47.690;11.770;2023-01-13T01:05:55;1.93;;;1.00;;
59366;SDS011;45163;47.690;11.770;2023-01-13T01:08:22;1.10;;;1.00;;
59366;SDS011;45163;47.690;11.770;2023-01-13T01:10:48;1.20;;;1.10;;
59366;SDS011;45163;47.690;11.770;2023-01-13T01:13:14;1.30;;;1.10;;
59366;SDS011;45163;47.690;11.770;2023-01-13T01:15:42;2.43;;;1.20;;
59366;SDS011;45163;47.690;11.770;2023-01-13T01:18:09;1.87;;;1.20;;
59366;SDS011;45163;47.690;11.770;2023-01-13T01:20:38;1.03;;;1.00;;
59366;SDS011;45163;47.690;11.770;2023-01-13T01:23:04;1.30;;;1.03;;
59366;SDS011;45163;47.690;11.770;2023-01-13T01:25:31;1.10;;;1.00;;
59366;SDS011;45163;47.690;11.770;2023-01-13T01:27:57;1.37;;;1.00;;
59366;SDS011;45163;47.690;11.770;2023-01-13T01:30:23;1.33;;;1.00;;
59366;SDS011;45163;47.690;11.770;2023-01-13T01:32:49;1.30;;;1.20;;
59366;SDS011;45163;47.690;11.770;2023-01-13T01:35:15;1.60;;;1.50;;
59366;SDS011;45163;47.690;11.770;2023-01-13T01:37:41;2.10;;;1.40;;
59366;SDS011;45163;47.690;11.770;2023-01-13T01:40:07;1.53;;;1.10;;
59366;SDS011;45163;47.690;11.770;2023-01-13T01:42:34;1.20;;;1.00;;
59366;SDS011;45163;47.690;11.770;2023-01-13T01:45:19;1.13;;;1.10;;
59366;SDS011;45163;47.690;11.770;2023-01-13T01:47:47;1.10;;;1.00;;
59366;SDS011;45163;47.690;11.770;2023-01-13T01:50:17;1.10;;;1.00;;
59366;SDS011;45163;47.690;11.770;2023-01-13T01:52:45;1.73;;;1.17;;
59366;SDS011;45163;47.690;11.770;2023-01-13T01:55:18;1.20;;;1.10;;
59366;SDS011;45163;47.690;11.770;2023-01-13T01:58:26;2.20;;;1.10;;
59366;SDS011;45163;47.690;11.770;2023-01-13T02:00:48;1.43;;;1.03;;
59366;SDS011;45163;47.690;11.770;2023-01-13T02:03:14;1.90;;;1.20;;
59366;SDS011;45163;47.690;11.770;2023-01-13T02:05:41;1.33;;;1.23;;
59366;SDS011;45163;47.690;11.770;2023-01-13T02:08:08;1.20;;;0.83;;
59366;SDS011;45163;47.690;11.770;2023-01-13T02:10:36;1.97;;;1.20;;
59366;SDS011;45163;47.690;11.770;2023-01-13T02:13:03;0.93;;;0.90;;
59366;SDS011;45163;47.690;11.770;2023-01-13T02:15:37;2.93;;;1.10;;
59366;SDS011;45163;47.690;11.770;2023-01-13T02:38:10;1.90;;;1.00;;
59366;SDS011;45163;47.690;11.770;2023-01-13T02:40:45;1.77;;;1.00;;
59366;SDS011;45163;47.690;11.770;2023-01-13T02:46:07;0.80;;;0.80;;
59366;SDS011;45163;47.690;11.770;2023-01-13T02:48:54;0.80;;;0.80;;
59366;SDS011;45163;47.690;11.770;2023-01-13T02:51:24;1.40;;;0.97;;
59366;SDS011;45163;47.690;11.770;2023-01-13T02:54:00;2.00;;;1.20;;
59366;SDS011;45163;47.690;11.770;2023-01-13T02:56:31;1.10;;;1.00;;
59366;SDS011;45163;47.690;11.770;2023-01-13T02:59:01;1.33;;;1.00;;
59366;SDS011;45163;47.690;11.770;2023-01-13T03:01:28;1.10;;;1.00;;
59366;SDS011;45163;47.690;11.770;2023-01-13T03:03:54;1.33;;;0.90;;
59366;SDS011;45163;47.690;11.770;2023-01-13T03:06:32;2.77;;;1.20;;
59366;SDS011;45163;47.690;11.770;2023-01-13T03:10:05;0.97;;;0.83;;
59366;SDS011;45163;47.690;11.770;2023-01-13T03:12:25;1.60;;;1.10;;
59366;SDS011;45163;47.690;11.770;2023-01-13T03:15:13;1.10;;;0.80;;
59366;SDS011;45163;47.690;11.770;2023-01-13T03:17:56;1.57;;;0.87;;
59366;SDS011;45163;47.690;11.770;2023-01-13T03:20:33;1.27;;;1.07;;
59366;SDS011;45163;47.690;11.770;2023-01-13T03:23:06;1.17;;;0.80;;
59366;SDS011;45163;47.690;11.770;2023-01-13T03:26:00;0.80;;;0.80;;
59366;SDS011;45163;47.690;11.770;2023-01-13T03:29:11;1.10;;;1.00;;
59366;SDS011;45163;47.690;11.770;2023-01-13T03:31:21;1.03;;;0.97;;
59366;SDS011;45163;47.690;11.770;2023-01-13T03:33:57;1.80;;;0.80;;
59366;SDS011;45163;47.690;11.770;2023-01-13T03:36:28;0.80;;;0.80;;
59366;SDS011;45163;47.690;11.770;2023-01-13T03:38:57;0.80;;;0.80;;
59366;SDS011;45163;47.690;11.770;2023-01-13T03:41:31;1.13;;;1.03;;
59366;SDS011;45163;47.690;11.770;2023-01-13T03:44:12;0.90;;;0.90;;
59366;SDS011;45163;47.690;11.770;2023-01-13T03:47:02;1.37;;;1.00;;
59366;SDS011;45163;47.690;11.770;2023-01-13T03:49:50;1.00;;;0.90;;
59366;SDS011;45163;47.690;11.770;2023-01-13T03:53:03;2.40;;;0.90;;
59366;SDS011;45163;47.690;11.770;2023-01-13T03:55:13;1.13;;;0.90;;
59366;SDS011;45163;47.690;11.770;2023-01-13T04:00:20;0.90;;;0.80;;
59366;SDS011;45163;47.690;11.770;2023-01-13T04:02:56;0.80;;;0.80;;
59366;SDS011;45163;47.690;11.770;2023-01-13T04:05:30;1.43;;;0.90;;
59366;SDS011;45163;47.690;11.770;2023-01-13T04:08:05;0.80;;;0.80;;
59366;SDS011;45163;47.690;11.770;2023-01-13T04:11:25;1.40;;;1.00;;
59366;SDS011;45163;47.690;11.770;2023-01-13T04:13:38;0.90;;;0.90;;
59366;SDS011;45163;47.690;11.770;2023-01-13T04:16:07;1.13;;;0.80;;
59366;SDS011;45163;47.690;11.770;2023-01-13T04:18:35;1.13;;;1.03;;
59366;SDS011;45163;47.690;11.770;2023-01-13T04:21:03;0.90;;;0.80;;
59366;SDS011;45163;47.690;11.770;2023-01-13T04:23:30;1.67;;;1.13;;
59366;SDS011;45163;47.690;11.770;2023-01-13T04:25:57;1.17;;;1.03;;
59366;SDS011;45163;47.690;11.770;2023-01-13T04:28:24;1.23;;;1.10;;
59366;SDS011;45163;47.690;11.770;2023-01-13T04:30:50;0.93;;;0.87;;
59366;SDS011;45163;47.690;11.770;2023-01-13T04:33:17;1.53;;;1.00;;
59366;SDS011;45163;47.690;11.770;2023-01-13T04:35:44;1.20;;;0.87;;
59366;SDS011;45163;47.690;11.770;2023-01-13T04:38:11;0.80;;;0.80;;
59366;SDS011;45163;47.690;11.770;2023-01-13T04:40:39;1.10;;;1.00;;
59366;SDS011;45163;47.690;11.770;2023-01-13T04:43:05;0.90;;;0.90;;
59366;SDS011;45163;47.690;11.770;2023-01-13T04:45:31;1.37;;;1.00;;
59366;SDS011;45163;47.690;11.770;2023-01-13T04:47:58;1.97;;;0.90;;
59366;SDS011;45163;47.690;11.770;2023-01-13T04:50:24;1.03;;;0.90;;
59366;SDS011;45163;47.690;11.770;2023-01-13T04:52:51;1.80;;;1.30;;
59366;SDS011;45163;47.690;11.770;2023-01-13T04:55:18;1.30;;;1.20;;
59366;SDS011;45163;47.690;11.770;2023-01-13T04:57:46;1.03;;;0.90;;
59366;SDS011;45163;47.690;11.770;2023-01-13T05:00:12;0.90;;;0.90;;
59366;SDS011;45163;47.690;11.770;2023-01-13T05:02:40;1.80;;;1.07;;
59366;SDS011;45163;47.690;11.770;2023-01-13T05:05:06;0.80;;;0.80;;
59366;SDS011;45163;47.690;11.770;2023-01-13T05:07:32;0.80;;;0.80;;
59366;SDS011;45163;47.690;11.770;2023-01-13T05:09:59;0.80;;;0.80;;
59366;SDS011;45163;47.690;11.770;2023-01-13T05:12:25;1.07;;;1.00;;
59366;SDS011;45163;47.690;11.770;2023-01-13T05:15:13;1.00;;;0.90;;
59366;SDS011;45163;47.690;11.770;2023-01-13T05:17:57;1.57;;;1.10;;
59366;SDS011;45163;47.690;11.770;2023-01-13T05:20:24;0.90;;;0.90;;
59366;SDS011;45163;47.690;11.770;2023-01-13T05:22:50;2.67;;;1.03;;
59366;SDS011;45163;47.690;11.770;2023-01-13T05:25:36;1.27;;;1.07;;
59366;SDS011;45163;47.690;11.770;2023-01-13T05:28:05;2.30;;;1.37;;
59366;SDS011;45163;47.690;11.770;2023-01-13T05:30:33;1.30;;;1.20;;
59366;SDS011;45163;47.690;11.770;2023-01-13T05:33:02;1.93;;;1.10;;
59366;SDS011;45163;47.690;11.770;2023-01-13T05:35:28;2.03;;;1.10;;
59366;SDS011;45163;47.690;11.770;2023-01-13T05:37:54;0.80;;;0.80;;
59366;SDS011;45163;47.690;11.770;2023-01-13T05:40:21;3.67;;;1.57;;
59366;SDS011;45163;47.690;11.770;2023-01-13T05:43:10;1.10;;;1.00;;
59366;SDS011;45163;47.690;11.770;2023-01-13T05:45:50;1.73;;;1.20;;
59366;SDS011;45163;47.690;11.770;2023-01-13T05:48:17;2.90;;;1.30;;
59366;SDS011;45163;47.690;11.770;2023-01-13T05:50:45;1.50;;;1.40;;
59366;SDS011;45163;47.690;11.770;2023-01-13T05:53:12;1.83;;;1.43;;
59366;SDS011;45163;47.690;11.770;2023-01-13T05:55:38;1.27;;;1.10;;
59366;SDS011;45163;47.690;11.770;2023-01-13T05:58:06;2.53;;;1.10;;
59366;SDS011;45163;47.690;11.770;2023-01-13T06:00:36;2.13;;;1.30;;
59366;SDS011;45163;47.690;11.770;2023-01-13T06:03:02;1.00;;;1.00;;
59366;SDS011;45163;47.690;11.770;2023-01-13T06:05:29;1.13;;;1.00;;
59366;SDS011;45163;47.690;11.770;2023-01-13T06:07:56;1.43;;;1.30;;
59366;SDS011;45163;47.690;11.770;2023-01-13T06:10:25;1.90;;;1.10;;
59366;SDS011;45163;47.690;11.770;2023-01-13T06:12:52;2.53;;;1.10;;
59366;SDS011;45163;47.690;11.770;2023-01-13T06:15:18;1.40;;;1.30;;
59366;SDS011;45163;47.690;11.770;2023-01-13T06:17:45;1.40;;;1.13;;
59366;SDS011;45163;47.690;11.770;2023-01-13T06:20:12;0.90;;;0.90;;
59366;SDS011;45163;47.690;11.770;2023-01-13T06:22:39;1.50;;;1.30;;
59366;SDS011;45163;47.690;11.770;2023-01-13T06:25:17;1.00;;;0.90;;
59366;SDS011;45163;47.690;11.770;2023-01-13T06:27:44;1.07;;;1.00;;
59366;SDS011;45163;47.690;11.770;2023-01-13T06:30:10;2.03;;;0.90;;
59366;SDS011;45163;47.690;11.770;2023-01-13T06:32:38;1.40;;;1.10;;
59366;SDS011;45163;47.690;11.770;2023-01-13T06:35:09;1.10;;;1.00;;
59366;SDS011;45163;47.690;11.770;2023-01-13T06:37:40;1.00;;;0.90;;
59366;SDS011;45163;47.690;11.770;2023-01-13T06:40:08;1.43;;;1.17;;
59366;SDS011;45163;47.690;11.770;2023-01-13T06:42:37;1.10;;;1.00;;
59366;SDS011;45163;47.690;11.770;2023-01-13T06:45:22;1.17;;;1.07;;
59366;SDS011;45163;47.690;11.770;2023-01-13T06:47:50;1.63;;;1.00;;
59366;SDS011;45163;47.690;11.770;2023-01-13T06:50:17;2.03;;;1.50;;
59366;SDS011;45163;47.690;11.770;2023-01-13T06:52:43;1.80;;;1.40;;
59366;SDS011;45163;47.690;11.770;2023-01-13T06:55:09;1.73;;;1.40;;
59366;SDS011;45163;47.690;11.770;2023-01-13T06:57:45;1.67;;;1.30;;
59366;SDS011;45163;47.690;11.770;2023-01-13T07:00:18;5.73;;;1.73;;
59366;SDS011;45163;47.690;11.770;2023-01-13T07:02:45;2.57;;;1.90;;
59366;SDS011;45163;47.690;11.770;2023-01-13T07:05:12;2.57;;;1.70;;
59366;SDS011;45163;47.690;11.770;2023-01-13T07:07:39;2.83;;;1.53;;
59366;SDS011;45163;47.690;11.770;2023-01-13T07:10:05;2.40;;;1.57;;
59366;SDS011;45163;47.690;11.770;2023-01-13T07:12:35;1.40;;;1.17;;
59366;SDS011;45163;47.690;11.770;2023-01-13T07:15:22;3.07;;;1.63;;
59366;SDS011;45163;47.690;11.770;2023-01-13T07:17:48;1.60;;;1.40;;
59366;SDS011;45163;47.690;11.770;2023-01-13T07:20:15;1.37;;;1.20;;
59366;SDS011;45163;47.690;11.770;2023-01-13T07:22:41;2.73;;;1.73;;
59366;SDS011;45163;47.690;11.770;2023-01-13T07:25:08;2.00;;;1.60;;
59366;SDS011;45163;47.690;11.770;2023-01-13T07:27:34;2.90;;;1.83;;
59366;SDS011;45163;47.690;11.770;2023-01-13T07:30:01;3.27;;;1.73;;
59366;SDS011;45163;47.690;11.770;2023-01-13T07:32:27;2.17;;;1.70;;
59366;SDS011;45163;47.690;11.770;2023-01-13T07:34:53;1.83;;;1.60;;
59366;SDS011;45163;47.690;11.770;2023-01-13T07:37:19;1.50;;;1.17;;
59366;SDS011;45163;47.690;11.770;2023-01-13T07:39:45;2.47;;;1.50;;
59366;SDS011;45163;47.690;11.770;2023-01-13T07:42:10;1.47;;;1.37;;
59366;SDS011;45163;47.690;11.770;2023-01-13T07:44:55;2.90;;;1.60;;
59366;SDS011;45163;47.690;11.770;2023-01-13T07:47:21;3.07;;;1.37;;
59366;SDS011;45163;47.690;11.770;2023-01-13T07:49:48;2.80;;;1.73;;
59366;SDS011;45163;47.690;11.770;2023-01-13T07:52:14;2.83;;;1.60;;
59366;SDS011;45163;47.690;11.770;2023-01-13T07:54:40;5.63;;;1.30;;
59366;SDS011;45163;47.690;11.770;2023-01-13T07:57:06;2.07;;;1.30;;
59366;SDS011;45163;47.690;11.770;2023-01-13T07:59:32;1.67;;;1.40;;
59366;SDS011;45163;47.690;11.770;2023-01-13T08:01:58;1.63;;;1.30;;
59366;SDS011;45163;47.690;11.770;2023-01-13T08:04:24;3.20;;;1.70;;
59366;SDS011;45163;47.690;11.770;2023-01-13T08:06:50;2.80;;;1.60;;
59366;SDS011;45163;47.690;11.770;2023-01-13T08:09:16;4.57;;;1.90;;
59366;SDS011;45163;47.690;11.770;2023-01-13T08:11:42;7.20;;;2.10;;
59366;SDS011;45163;47.690;11.770;2023-01-13T08:14:08;3.10;;;2.17;;
59366;SDS011;45163;47.690;11.770;2023-01-13T08:16:34;2.53;;;1.90;;
59366;SDS011;45163;47.690;11.770;2023-01-13T08:19:00;3.70;;;1.90;;
59366;SDS011;45163;47.690;11.770;2023-01-13T08:21:26;2.20;;;1.70;;
59366;SDS011;45163;47.690;11.770;2023-01-13T08:23:52;2.33;;;1.63;;
59366;SDS011;45163;47.690;11.770;2023-01-13T08:26:18;2.83;;;1.93;;
59366;SDS011;45163;47.690;11.770;2023-01-13T08:28:44;2.43;;;1.10;;
59366;SDS011;45163;47.690;11.770;2023-01-13T08:31:11;2.13;;;1.30;;
59366;SDS011;45163;47.690;11.770;2023-01-13T08:33:40;4.50;;;1.27;;
59366;SDS011;45163;47.690;11.770;2023-01-13T08:36:07;2.23;;;1.20;;
59366;SDS011;45163;47.690;11.770;2023-01-13T08:38:35;1.60;;;1.30;;
59366;SDS011;45163;47.690;11.770;2023-01-13T08:41:08;1.30;;;1.20;;
59366;SDS011;45163;47.690;11.770;2023-01-13T08:43:36;1.93;;;1.03;;
59366;SDS011;45163;47.690;11.770;2023-01-13T08:46:03;1.30;;;1.20;;
59366;SDS011;45163;47.690;11.770;2023-01-13T08:48:29;2.30;;;1.50;;
59366;SDS011;45163;47.690;11.770;2023-01-13T08:51:05;2.03;;;1.40;;
59366;SDS011;45163;47.690;11.770;2023-01-13T08:53:33;1.87;;;1.50;;
59366;SDS011;45163;47.690;11.770;2023-01-13T08:55:59;1.50;;;1.40;;
59366;SDS011;45163;47.690;11.770;2023-01-13T08:58:25;4.40;;;1.80;;
59366;SDS011;45163;47.690;11.770;2023-01-13T09:00:51;1.60;;;1.50;;
59366;SDS011;45163;47.690;11.770;2023-01-13T09:03:17;1.67;;;1.50;;
59366;SDS011;45163;47.690;11.770;2023-01-13T09:05:43;1.93;;;1.40;;
59366;SDS011;45163;47.690;11.770;2023-01-13T09:08:09;2.33;;;1.53;;
59366;SDS011;45163;47.690;11.770;2023-01-13T09:10:35;2.47;;;1.67;;
59366;SDS011;45163;47.690;11.770;2023-01-13T09:13:01;2.13;;;1.60;;
59366;SDS011;45163;47.690;11.770;2023-01-13T09:15:36;4.03;;;1.70;;
59366;SDS011;45163;47.690;11.770;2023-01-13T09:18:02;2.67;;;1.43;;
59366;SDS011;45163;47.690;11.770;2023-01-13T09:20:28;2.13;;;1.90;;
59366;SDS011;45163;47.690;11.770;2023-01-13T09:22:54;3.13;;;2.20;;
59366;SDS011;45163;47.690;11.770;2023-01-13T09:25:20;3.50;;;2.20;;
59366;SDS011;45163;47.690;11.770;2023-01-13T09:27:46;3.27;;;2.00;;
59366;SDS011;45163;47.690;11.770;2023-01-13T09:30:12;2.33;;;1.60;;
59366;SDS011;45163;47.690;11.770;2023-01-13T09:32:38;2.33;;;1.63;;
59366;SDS011;45163;47.690;11.770;2023-01-13T09:35:06;4.80;;;1.67;;
59366;SDS011;45163;47.690;11.770;2023-01-13T09:37:33;3.33;;;1.50;;
59366;SDS011;45163;47.690;11.770;2023-01-13T09:40:10;3.57;;;1.87;;
59366;SDS011;45163;47.690;11.770;2023-01-13T09:42:55;3.07;;;1.70;;
59366;SDS011;45163;47.690;11.770;2023-01-13T09:45:47;3.73;;;1.63;;
59366;SDS011;45163;47.690;11.770;2023-01-13T09:48:55;2.13;;;1.53;;
59366;SDS011;45163;47.690;11.770;2023-01-13T09:51:26;1.30;;;1.20;;
59366;SDS011;45163;47.690;11.770;2023-01-13T09:54:05;3.53;;;1.60;;
59366;SDS011;45163;47.690;11.770;2023-01-13T09:56:45;1.70;;;1.57;;
59366;SDS011;45163;47.690;11.770;2023-01-13T09:59:12;1.90;;;1.70;;
59366;SDS011;45163;47.690;11.770;2023-01-13T10:01:41;4.23;;;1.70;;
59366;SDS011;45163;47.690;11.770;2023-01-13T10:04:23;2.77;;;1.70;;
59366;SDS011;45163;47.690;11.770;2023-01-13T10:06:51;1.97;;;1.43;;
59366;SDS011;45163;47.690;11.770;2023-01-13T10:09:41;1.53;;;1.30;;
59366;SDS011;45163;47.690;11.770;2023-01-13T10:12:13;5.00;;;2.10;;
59366;SDS011;45163;47.690;11.770;2023-01-13T10:15:30;4.13;;;2.30;;
59366;SDS011;45163;47.690;11.770;2023-01-13T10:17:56;3.30;;;2.20;;
59366;SDS011;45163;47.690;11.770;2023-01-13T10:28:50;2.37;;;1.80;;
59366;SDS011;45163;47.690;11.770;2023-01-13T10:31:17;3.13;;;1.40;;
59366;SDS011;45163;47.690;11.770;2023-01-13T10:33:45;1.57;;;1.37;;
59366;SDS011;45163;47.690;11.770;2023-01-13T10:38:39;2.07;;;1.30;;
59366;SDS011;45163;47.690;11.770;2023-01-13T10:43:44;8.20;;;2.00;;
59366;SDS011;45163;47.690;11.770;2023-01-13T10:46:22;11.37;;;4.97;;
59366;SDS011;45163;47.690;11.770;2023-01-13T10:48:53;3.33;;;2.40;;
59366;SDS011;45163;47.690;11.770;2023-01-13T10:53:51;3.57;;;1.60;;
59366;SDS011;45163;47.690;11.770;2023-01-13T10:56:20;7.47;;;2.70;;
59366;SDS011;45163;47.690;11.770;2023-01-13T10:58:48;8.63;;;1.80;;
59366;SDS011;45163;47.690;11.770;2023-01-13T11:01:24;3.67;;;1.70;;
59366;SDS011;45163;47.690;11.770;2023-01-13T11:03:52;7.70;;;1.70;;
59366;SDS011;45163;47.690;11.770;2023-01-13T11:06:27;1.73;;;1.27;;
59366;SDS011;45163;47.690;11.770;2023-01-13T11:08:55;2.13;;;1.47;;
59366;SDS011;45163;47.690;11.770;2023-01-13T11:11:36;9.90;;;2.10;;
59366;SDS011;45163;47.690;11.770;2023-01-13T11:14:33;15.27;;;2.17;;
59366;SDS011;45163;47.690;11.770;2023-01-13T11:22:37;11.30;;;2.10;;
59366;SDS011;45163;47.690;11.770;2023-01-13T11:25:09;8.60;;;2.07;;
59366;SDS011;45163;47.690;11.770;2023-01-13T11:28:05;1.50;;;1.40;;
59366;SDS011;45163;47.690;11.770;2023-01-13T11:34:00;6.33;;;2.30;;
59366;SDS011;45163;47.690;11.770;2023-01-13T11:36:33;2.53;;;1.30;;
59366;SDS011;45163;47.690;11.770;2023-01-13T11:39:18;2.37;;;1.50;;
59366;SDS011;45163;47.690;11.770;2023-01-13T11:41:56;2.30;;;1.47;;
59366;SDS011;45163;47.690;11.770;2023-01-13T11:44:44;7.53;;;2.00;;
59366;SDS011;45163;47.690;11.770;2023-01-13T11:47:30;2.40;;;1.70;;
59366;SDS011;45163;47.690;11.770;2023-01-13T11:49:57;8.13;;;2.30;;
59366;SDS011;45163;47.690;11.770;2023-01-13T12:01:02;3.30;;;1.70;;
59366;SDS011;45163;47.690;11.770;2023-01-13T12:03:39;2.77;;;1.87;;
59366;SDS011;45163;47.690;11.770;2023-01-13T12:11:58;9.97;;;2.50;;
59366;SDS011;45163;47.690;11.770;2023-01-13T12:17:47;3.43;;;1.70;;
59366;SDS011;45163;47.690;11.770;2023-01-13T12:20:40;1.80;;;1.40;;
59366;SDS011;45163;47.690;11.770;2023-01-13T12:26:20;1.60;;;1.33;;
59366;SDS011;45163;47.690;11.770;2023-01-13T12:31:22;9.23;;;1.40;;
59366;SDS011;45163;47.690;11.770;2023-01-13T12:36:36;2.00;;;1.40;;
59366;SDS011;45163;47.690;11.770;2023-01-13T12:52:49;12.00;;;2.73;;
59366;SDS011;45163;47.690;11.770;2023-01-13T12:55:24;14.43;;;2.70;;
59366;SDS011;45163;47.690;11.770;2023-01-13T13:09:04;11.47;;;4.97;;
59366;SDS011;45163;47.690;11.770;2023-01-13T13:11:38;7.33;;;4.03;;
59366;SDS011;45163;47.690;11.770;2023-01-13T13:19:55;8.63;;;2.30;;
59366;SDS011;45163;47.690;11.770;2023-01-13T13:27:17;1.30;;;1.00;;
59366;SDS011;45163;47.690;11.770;2023-01-13T13:41:12;1.53;;;0.70;;
59366;SDS011;45163;47.690;11.770;2023-01-13T13:44:02;0.50;;;0.50;;
59366;SDS011;45163;47.690;11.770;2023-01-13T13:47:01;1.77;;;0.80;;
59366;SDS011;45163;47.690;11.770;2023-01-13T13:52:17;1.67;;;0.80;;
59366;SDS011;45163;47.690;11.770;2023-01-13T13:54:49;0.70;;;0.70;;
59366;SDS011;45163;47.690;11.770;2023-01-13T13:57:21;0.90;;;0.80;;
59366;SDS011;45163;47.690;11.770;2023-01-13T13:59:56;1.20;;;1.10;;
59366;SDS011;45163;47.690;11.770;2023-01-13T14:02:26;2.70;;;1.07;;
59366;SDS011;45163;47.690;11.770;2023-01-13T14:07:50;0.50;;;0.50;;
59366;SDS011;45163;47.690;11.770;2023-01-13T14:10:26;0.70;;;0.70;;
59366;SDS011;45163;47.690;11.770;2023-01-13T14:12:55;0.70;;;0.70;;
59366;SDS011;45163;47.690;11.770;2023-01-13T14:15:31;0.60;;;0.60;;
59366;SDS011;45163;47.690;11.770;2023-01-13T14:18:04;13.93;;;2.07;;
59366;SDS011;45163;47.690;11.770;2023-01-13T14:20:35;2.30;;;1.00;;
59366;SDS011;45163;47.690;11.770;2023-01-13T14:23:01;1.47;;;0.60;;
59366;SDS011;45163;47.690;11.770;2023-01-13T14:28:02;0.90;;;0.90;;
59366;SDS011;45163;47.690;11.770;2023-01-13T14:30:38;2.20;;;1.20;;
59366;SDS011;45163;47.690;11.770;2023-01-13T14:33:05;1.37;;;1.10;;
59366;SDS011;45163;47.690;11.770;2023-01-13T14:35:32;1.33;;;1.23;;
59366;SDS011;45163;47.690;11.770;2023-01-13T14:38:01;2.20;;;1.57;;
59366;SDS011;45163;47.690;11.770;2023-01-13T14:42:58;4.50;;;0.90;;
59366;SDS011;45163;47.690;11.770;2023-01-13T14:45:25;5.17;;;0.83;;
59366;SDS011;45163;47.690;11.770;2023-01-13T14:47:51;1.27;;;0.70;;
59366;SDS011;45163;47.690;11.770;2023-01-13T14:50:19;1.70;;;0.77;;
59366;SDS011;45163;47.690;11.770;2023-01-13T14:52:53;2.33;;;0.90;;
59366;SDS011;45163;47.690;11.770;2023-01-13T14:55:34;1.13;;;1.03;;
59366;SDS011;45163;47.690;11.770;2023-01-13T15:00:47;1.23;;;0.90;;
59366;SDS011;45163;47.690;11.770;2023-01-13T15:03:15;2.47;;;1.30;;
59366;SDS011;45163;47.690;11.770;2023-01-13T15:05:46;3.10;;;0.80;;
59366;SDS011;45163;47.690;11.770;2023-01-13T15:13:20;0.97;;;0.87;;
59366;SDS011;45163;47.690;11.770;2023-01-13T15:15:51;1.23;;;0.90;;
59366;SDS011;45163;47.690;11.770;2023-01-13T15:18:20;1.23;;;0.80;;
59366;SDS011;45163;47.690;11.770;2023-01-13T15:20:46;0.83;;;0.60;;
59366;SDS011;45163;47.690;11.770;2023-01-13T15:23:12;2.00;;;0.77;;
59366;SDS011;45163;47.690;11.770;2023-01-13T15:25:39;2.30;;;0.83;;
59366;SDS011;45163;47.690;11.770;2023-01-13T15:28:26;0.70;;;0.70;;
59366;SDS011;45163;47.690;11.770;2023-01-13T15:30:54;1.50;;;0.80;;
59366;SDS011;45163;47.690;11.770;2023-01-13T15:33:20;2.07;;;0.97;;
59366;SDS011;45163;47.690;11.770;2023-01-13T15:35:59;1.80;;;0.93;;
59366;SDS011;45163;47.690;11.770;2023-01-13T15:38:26;0.80;;;0.67;;
59366;SDS011;45163;47.690;11.770;2023-01-13T15:40:52;1.47;;;0.60;;
59366;SDS011;45163;47.690;11.770;2023-01-13T15:43:19;0.63;;;0.60;;
59366;SDS011;45163;47.690;11.770;2023-01-13T15:46:12;0.80;;;0.60;;
59366;SDS011;45163;47.690;11.770;2023-01-13T15:49:00;1.10;;;0.70;;
59366;SDS011;45163;47.690;11.770;2023-01-13T15:51:28;1.50;;;0.70;;
59366;SDS011;45163;47.690;11.770;2023-01-13T15:53:54;0.70;;;0.60;;
59366;SDS011;45163;47.690;11.770;2023-01-13T15:56:23;0.90;;;0.80;;
59366;SDS011;45163;47.690;11.770;2023-01-13T15:58:53;1.63;;;0.80;;
59366;SDS011;45163;47.690;11.770;2023-01-13T16:01:19;0.73;;;0.73;;
59366;SDS011;45163;47.690;11.770;2023-01-13T16:03:46;0.67;;;0.67;;
59366;SDS011;45163;47.690;11.770;2023-01-13T16:06:17;1.53;;;0.60;;
59366;SDS011;45163;47.690;11.770;2023-01-13T16:08:45;1.77;;;0.77;;
59366;SDS011;45163;47.690;11.770;2023-01-13T16:11:11;1.77;;;1.10;;
59366;SDS011;45163;47.690;11.770;2023-01-13T16:13:37;0.77;;;0.73;;
59366;SDS011;45163;47.690;11.770;2023-01-13T16:16:08;1.20;;;0.93;;
59366;SDS011;45163;47.690;11.770;2023-01-13T16:18:40;1.80;;;1.20;;
59366;SDS011;45163;47.690;11.770;2023-01-13T16:21:08;3.60;;;1.10;;
59366;SDS011;45163;47.690;11.770;2023-01-13T16:23:36;4.30;;;2.13;;
59366;SDS011;45163;47.690;11.770;2023-01-13T16:26:06;4.37;;;2.03;;
59366;SDS011;45163;47.690;11.770;2023-01-13T16:28:40;0.70;;;0.63;;
59366;SDS011;45163;47.690;11.770;2023-01-13T16:31:17;2.30;;;1.00;;
59366;SDS011;45163;47.690;11.770;2023-01-13T16:33:48;2.00;;;1.10;;
59366;SDS011;45163;47.690;11.770;2023-01-13T16:36:15;1.20;;;0.97;;
59366;SDS011;45163;47.690;11.770;2023-01-13T16:38:42;1.30;;;1.07;;
59366;SDS011;45163;47.690;11.770;2023-01-13T16:41:08;1.83;;;1.10;;
59366;SDS011;45163;47.690;11.770;2023-01-13T16:43:34;0.70;;;0.70;;
59366;SDS011;45163;47.690;11.770;2023-01-13T16:46:01;0.93;;;0.83;;
59366;SDS011;45163;47.690;11.770;2023-01-13T16:48:27;0.60;;;0.60;;
59366;SDS011;45163;47.690;11.770;2023-01-13T16:50:53;1.03;;;0.67;;
59366;SDS011;45163;47.690;11.770;2023-01-13T16:53:19;0.90;;;0.77;;
59366;SDS011;45163;47.690;11.770;2023-01-13T16:55:45;0.90;;;0.60;;
59366;SDS011;45163;47.690;11.770;2023-01-13T16:58:15;1.40;;;0.53;;
59366;SDS011;45163;47.690;11.770;2023-01-13T17:00:45;0.63;;;0.60;;
59366;SDS011;45163;47.690;11.770;2023-01-13T17:03:15;1.40;;;0.83;;
59366;SDS011;45163;47.690;11.770;2023-01-13T17:05:41;0.80;;;0.77;;
59366;SDS011;45163;47.690;11.770;2023-01-13T17:08:12;2.23;;;1.10;;
59366;SDS011;45163;47.690;11.770;2023-01-13T17:10:44;2.67;;;0.70;;
59366;SDS011;45163;47.690;11.770;2023-01-13T17:13:10;1.00;;;0.80;;
59366;SDS011;45163;47.690;11.770;2023-01-13T17:15:37;1.43;;;0.90;;
59366;SDS011;45163;47.690;11.770;2023-01-13T17:18:03;1.50;;;0.70;;